TUI96N LTBS-EDDL
Flight info
| Callsign | TUI96N |
|---|---|
| Flight time | 3h 16m |
| Altitude | 36000 |
| Route | KEKIK UT476 YOYYO UG80 IMR UN127 RIKSO DCT FSK DCT DISOR DCT LONTA UL608 DOLEV DCT TIVNU DCT PODET DCT SIMBA DCT KEMES DCT TESDU DCT AMETU T852 TINSA T854 DOMUX DOMUX1A |
| Aircraft | B738/M-SADE2E3FGHIRWXY/LB1 |
Departure
| Time | 2026-05-04 14:34 |
|---|---|
| Airport | Dalaman International Airport (LTBS) |
Arrival
| Time | 2026-05-04 17:50 |
|---|---|
| Airport | Düsseldorf Airport (EDDL) |
| Time | Latitude | Longitude | Altitude | Speed | Heading |
|---|---|---|---|---|---|
| 2026-05-04 14:08 | 36.72223 | 28.79047 | 11 ft | 0 kts | 285° |
| 2026-05-04 14:25 | 36.72215 | 28.79084 | 11 ft | 3 kts | 285° |
| 2026-05-04 14:25 | 36.72213 | 28.79109 | 14 ft | 3 kts | 245° |
| 2026-05-04 14:26 | 36.72226 | 28.79127 | 12 ft | 3 kts | 197° |
| 2026-05-04 14:26 | 36.72246 | 28.79134 | 11 ft | 2 kts | 195° |
| 2026-05-04 14:26 | 36.72248 | 28.79135 | 11 ft | 0 kts | 195° |
| 2026-05-04 14:28 | 36.72236 | 28.79131 | 12 ft | 4 kts | 195° |
| 2026-05-04 14:28 | 36.72188 | 28.79114 | 12 ft | 10 kts | 196° |
| 2026-05-04 14:28 | 36.72103 | 28.79083 | 11 ft | 15 kts | 194° |
| 2026-05-04 14:29 | 36.71909 | 28.79030 | 11 ft | 14 kts | 158° |
| 2026-05-04 14:29 | 36.71821 | 28.79206 | 11 ft | 13 kts | 182° |
| 2026-05-04 14:30 | 36.71721 | 28.79174 | 11 ft | 17 kts | 195° |
| 2026-05-04 14:30 | 36.71584 | 28.79128 | 11 ft | 23 kts | 195° |
| 2026-05-04 14:30 | 36.71228 | 28.79008 | 12 ft | 26 kts | 195° |
| 2026-05-04 14:31 | 36.71056 | 28.78948 | 12 ft | 25 kts | 195° |
| 2026-05-04 14:31 | 36.70743 | 28.78842 | 12 ft | 22 kts | 195° |
| 2026-05-04 14:32 | 36.70450 | 28.78743 | 12 ft | 21 kts | 195° |
| 2026-05-04 14:32 | 36.70310 | 28.78696 | 12 ft | 21 kts | 195° |
| 2026-05-04 14:32 | 36.70174 | 28.78650 | 12 ft | 20 kts | 195° |
| 2026-05-04 14:32 | 36.70064 | 28.78668 | 12 ft | 6 kts | 116° |
| 2026-05-04 14:33 | 36.70052 | 28.78715 | 14 ft | 8 kts | 107° |
| 2026-05-04 14:33 | 36.70044 | 28.78812 | 12 ft | 12 kts | 54° |
| 2026-05-04 14:33 | 36.70068 | 28.78827 | 12 ft | 0 kts | 14° |
| 2026-05-04 14:34 | 36.70110 | 28.78840 | 12 ft | 26 kts | 14° |
| 2026-05-04 14:34 | 36.70523 | 28.78983 | 12 ft | 96 kts | 14° |
| 2026-05-04 14:34 | 36.71367 | 28.79266 | 17 ft | 152 kts | 15° |
| 2026-05-04 14:34 | 36.72415 | 28.79675 | 645 ft | 157 kts | 13° |
| 2026-05-04 14:35 | 36.73474 | 28.79763 | 1376 ft | 156 kts | 346° |
| 2026-05-04 14:35 | 36.74556 | 28.79565 | 2178 ft | 158 kts | 358° |
| 2026-05-04 14:35 | 36.75641 | 28.79622 | 2925 ft | 158 kts | 359° |
| 2026-05-04 14:35 | 36.76769 | 28.79656 | 3506 ft | 173 kts | 358° |
| 2026-05-04 14:36 | 36.78070 | 28.79679 | 3741 ft | 200 kts | 358° |
| 2026-05-04 14:36 | 36.79539 | 28.79674 | 4040 ft | 220 kts | 351° |
| 2026-05-04 14:36 | 36.80997 | 28.78916 | 4527 ft | 237 kts | 329° |
| 2026-05-04 14:36 | 36.82411 | 28.77793 | 5328 ft | 241 kts | 331° |
| 2026-05-04 14:37 | 36.83846 | 28.76692 | 6174 ft | 243 kts | 331° |
| 2026-05-04 14:37 | 36.85293 | 28.75585 | 6977 ft | 244 kts | 331° |
| 2026-05-04 14:37 | 36.86751 | 28.74471 | 7612 ft | 245 kts | 331° |
| 2026-05-04 14:37 | 36.88200 | 28.73363 | 7954 ft | 245 kts | 330° |
| 2026-05-04 14:38 | 36.89658 | 28.72163 | 8077 ft | 256 kts | 321° |
| 2026-05-04 14:38 | 36.90775 | 28.70402 | 8811 ft | 260 kts | 307° |
| 2026-05-04 14:38 | 36.91738 | 28.68494 | 9709 ft | 259 kts | 307° |
| 2026-05-04 14:38 | 36.92694 | 28.66605 | 10357 ft | 265 kts | 306° |
| 2026-05-04 14:39 | 36.93734 | 28.64571 | 10504 ft | 290 kts | 306° |
| 2026-05-04 14:39 | 36.94863 | 28.62370 | 10690 ft | 311 kts | 306° |
| 2026-05-04 14:39 | 36.96066 | 28.60024 | 10974 ft | 328 kts | 306° |
| 2026-05-04 14:40 | 36.98558 | 28.55142 | 12314 ft | 335 kts | 306° |
| 2026-05-04 14:40 | 36.99894 | 28.52751 | 12992 ft | 336 kts | 313° |
| 2026-05-04 14:40 | 37.01577 | 28.50720 | 13689 ft | 337 kts | 320° |
| 2026-05-04 14:40 | 37.03340 | 28.48763 | 14315 ft | 339 kts | 320° |
| 2026-05-04 14:41 | 37.05113 | 28.46797 | 14952 ft | 342 kts | 320° |
| 2026-05-04 14:41 | 37.06881 | 28.44829 | 15533 ft | 346 kts | 319° |
| 2026-05-04 14:41 | 37.10499 | 28.40776 | 16815 ft | 350 kts | 319° |
| 2026-05-04 14:42 | 37.14141 | 28.36672 | 18027 ft | 355 kts | 319° |
| 2026-05-04 14:42 | 37.15982 | 28.34593 | 18522 ft | 359 kts | 319° |
| 2026-05-04 14:42 | 37.17851 | 28.32478 | 18970 ft | 363 kts | 319° |
| 2026-05-04 14:43 | 37.19736 | 28.30344 | 19423 ft | 367 kts | 319° |
| 2026-05-04 14:43 | 37.21639 | 28.28186 | 19940 ft | 369 kts | 319° |
| 2026-05-04 14:43 | 37.23550 | 28.26018 | 20417 ft | 372 kts | 318° |
| 2026-05-04 14:43 | 37.25482 | 28.23825 | 20872 ft | 376 kts | 318° |
| 2026-05-04 14:44 | 37.27429 | 28.21612 | 21323 ft | 379 kts | 318° |
| 2026-05-04 14:44 | 37.29369 | 28.19406 | 21751 ft | 383 kts | 318° |
| 2026-05-04 14:44 | 37.31348 | 28.17154 | 22088 ft | 386 kts | 318° |
| 2026-05-04 14:44 | 37.33346 | 28.14879 | 22600 ft | 390 kts | 318° |
| 2026-05-04 14:45 | 37.35361 | 28.12582 | 23019 ft | 393 kts | 317° |
| 2026-05-04 14:45 | 37.37394 | 28.10263 | 23462 ft | 395 kts | 317° |
| 2026-05-04 14:45 | 37.38768 | 28.08695 | 23799 ft | 394 kts | 317° |
| 2026-05-04 14:45 | 37.41479 | 28.05598 | 24186 ft | 400 kts | 319° |
| 2026-05-04 14:46 | 37.42847 | 28.04036 | 24378 ft | 403 kts | 318° |
| 2026-05-04 14:46 | 37.44925 | 28.01662 | 24732 ft | 404 kts | 319° |
| 2026-05-04 14:46 | 37.47022 | 27.99265 | 25038 ft | 407 kts | 319° |
| 2026-05-04 14:46 | 37.49120 | 27.96862 | 25375 ft | 410 kts | 319° |
| 2026-05-04 14:47 | 37.51931 | 27.93637 | 25806 ft | 413 kts | 319° |
| 2026-05-04 14:47 | 37.53361 | 27.91995 | 26077 ft | 413 kts | 319° |
| 2026-05-04 14:47 | 37.55493 | 27.89546 | 26417 ft | 415 kts | 319° |
| 2026-05-04 14:47 | 37.57633 | 27.87087 | 26712 ft | 418 kts | 319° |
| 2026-05-04 14:48 | 37.59789 | 27.84607 | 26979 ft | 421 kts | 319° |
| 2026-05-04 14:48 | 37.61963 | 27.82105 | 27225 ft | 424 kts | 319° |
| 2026-05-04 14:48 | 37.64152 | 27.79584 | 27461 ft | 427 kts | 319° |
| 2026-05-04 14:48 | 37.66321 | 27.77083 | 27765 ft | 428 kts | 320° |
| 2026-05-04 14:49 | 37.68533 | 27.74530 | 28026 ft | 432 kts | 319° |
| 2026-05-04 14:49 | 37.70763 | 27.71955 | 28226 ft | 436 kts | 320° |
| 2026-05-04 14:49 | 37.73007 | 27.69361 | 28526 ft | 438 kts | 320° |
| 2026-05-04 14:49 | 37.75255 | 27.66760 | 28798 ft | 440 kts | 320° |
| 2026-05-04 14:50 | 37.77515 | 27.64142 | 29094 ft | 441 kts | 320° |
| 2026-05-04 14:50 | 37.79778 | 27.61519 | 29480 ft | 441 kts | 320° |
| 2026-05-04 14:50 | 37.82041 | 27.58893 | 29890 ft | 440 kts | 320° |
| 2026-05-04 14:50 | 37.84295 | 27.56276 | 30210 ft | 440 kts | 320° |
| 2026-05-04 14:51 | 37.86520 | 27.53690 | 30482 ft | 440 kts | 320° |
| 2026-05-04 14:51 | 37.88772 | 27.51071 | 30783 ft | 439 kts | 320° |
| 2026-05-04 14:51 | 37.91014 | 27.48460 | 31104 ft | 438 kts | 320° |
| 2026-05-04 14:51 | 37.93254 | 27.45850 | 31367 ft | 438 kts | 320° |
| 2026-05-04 14:52 | 37.95503 | 27.43227 | 31554 ft | 440 kts | 320° |
| 2026-05-04 14:52 | 37.97754 | 27.40603 | 31833 ft | 439 kts | 320° |
| 2026-05-04 14:52 | 37.99998 | 27.37980 | 32277 ft | 435 kts | 320° |
| 2026-05-04 14:52 | 38.02213 | 27.35390 | 32686 ft | 432 kts | 320° |
| 2026-05-04 14:53 | 38.04427 | 27.32799 | 32877 ft | 434 kts | 319° |
| 2026-05-04 14:53 | 38.06654 | 27.30192 | 33049 ft | 435 kts | 319° |
| 2026-05-04 14:53 | 38.08850 | 27.27619 | 33338 ft | 434 kts | 319° |
| 2026-05-04 14:53 | 38.11060 | 27.25025 | 33673 ft | 432 kts | 319° |
| 2026-05-04 14:54 | 38.13267 | 27.22434 | 33977 ft | 430 kts | 319° |
| 2026-05-04 14:54 | 38.15466 | 27.19850 | 34186 ft | 430 kts | 319° |
| 2026-05-04 14:54 | 38.17663 | 27.17266 | 34367 ft | 430 kts | 319° |
| 2026-05-04 14:54 | 38.19858 | 27.14682 | 34590 ft | 429 kts | 319° |
| 2026-05-04 14:55 | 38.22046 | 27.12103 | 34832 ft | 428 kts | 319° |
| 2026-05-04 14:55 | 38.24225 | 27.09534 | 35028 ft | 427 kts | 319° |
| 2026-05-04 14:55 | 38.26406 | 27.06960 | 35191 ft | 428 kts | 319° |
| 2026-05-04 14:55 | 38.28589 | 27.04382 | 35347 ft | 428 kts | 318° |
| 2026-05-04 14:56 | 38.32982 | 26.99212 | 35598 ft | 430 kts | 319° |
| 2026-05-04 14:56 | 38.35234 | 26.96691 | 35703 ft | 432 kts | 320° |
| 2026-05-04 14:56 | 38.37512 | 26.94199 | 35928 ft | 430 kts | 320° |
| 2026-05-04 14:57 | 38.39758 | 26.91754 | 36049 ft | 431 kts | 320° |
| 2026-05-04 14:57 | 38.42041 | 26.89260 | 36043 ft | 432 kts | 320° |
| 2026-05-04 14:57 | 38.46588 | 26.84258 | 36043 ft | 431 kts | 320° |
| 2026-05-04 14:58 | 38.51121 | 26.79238 | 36065 ft | 431 kts | 320° |
| 2026-05-04 14:58 | 38.55647 | 26.74209 | 36045 ft | 431 kts | 320° |
| 2026-05-04 14:59 | 38.60169 | 26.69177 | 36045 ft | 429 kts | 320° |
| 2026-05-04 15:00 | 38.66912 | 26.61658 | 36056 ft | 428 kts | 320° |
| 2026-05-04 15:00 | 38.71373 | 26.56673 | 36059 ft | 428 kts | 320° |
| 2026-05-04 15:01 | 38.78110 | 26.49130 | 36063 ft | 430 kts | 320° |
| 2026-05-04 15:01 | 38.82623 | 26.44063 | 36070 ft | 432 kts | 320° |
| 2026-05-04 15:02 | 38.86817 | 26.38518 | 36073 ft | 435 kts | 313° |
| 2026-05-04 15:02 | 38.90806 | 26.32653 | 36068 ft | 437 kts | 313° |
| 2026-05-04 15:03 | 38.94807 | 26.26763 | 36064 ft | 438 kts | 313° |
| 2026-05-04 15:03 | 38.98843 | 26.20880 | 36058 ft | 439 kts | 313° |
| 2026-05-04 15:04 | 39.02873 | 26.15031 | 36060 ft | 439 kts | 313° |
| 2026-05-04 15:04 | 39.06927 | 26.09145 | 36066 ft | 439 kts | 313° |
| 2026-05-04 15:05 | 39.10977 | 26.03255 | 36062 ft | 439 kts | 313° |
| 2026-05-04 15:05 | 39.15019 | 25.97363 | 36064 ft | 438 kts | 313° |
| 2026-05-04 15:06 | 39.19045 | 25.91482 | 36058 ft | 437 kts | 313° |
| 2026-05-04 15:07 | 39.25039 | 25.82701 | 36066 ft | 436 kts | 313° |
| 2026-05-04 15:07 | 39.29036 | 25.76833 | 36069 ft | 435 kts | 313° |
| 2026-05-04 15:08 | 39.33035 | 25.70960 | 36069 ft | 435 kts | 313° |
| 2026-05-04 15:08 | 39.37025 | 25.65086 | 36067 ft | 435 kts | 313° |
| 2026-05-04 15:09 | 39.41019 | 25.59193 | 36065 ft | 435 kts | 313° |
| 2026-05-04 15:09 | 39.44984 | 25.53332 | 36074 ft | 435 kts | 313° |
| 2026-05-04 15:10 | 39.50977 | 25.44451 | 36071 ft | 436 kts | 313° |
| 2026-05-04 15:11 | 39.56964 | 25.35547 | 36078 ft | 438 kts | 313° |
| 2026-05-04 15:11 | 39.60970 | 25.29586 | 36068 ft | 439 kts | 313° |
| 2026-05-04 15:12 | 39.64957 | 25.23635 | 36079 ft | 439 kts | 313° |
| 2026-05-04 15:12 | 39.68970 | 25.17633 | 36078 ft | 440 kts | 313° |
| 2026-05-04 15:13 | 39.72991 | 25.11606 | 36078 ft | 441 kts | 313° |
| 2026-05-04 15:13 | 39.77006 | 25.05579 | 36070 ft | 441 kts | 313° |
| 2026-05-04 15:14 | 39.81016 | 24.99545 | 36065 ft | 440 kts | 312° |
| 2026-05-04 15:14 | 39.84990 | 24.93557 | 36062 ft | 440 kts | 312° |
| 2026-05-04 15:15 | 39.88981 | 24.87530 | 36067 ft | 439 kts | 312° |
| 2026-05-04 15:15 | 39.92971 | 24.81493 | 36073 ft | 439 kts | 312° |
| 2026-05-04 15:16 | 39.98939 | 24.72442 | 36063 ft | 439 kts | 312° |
| 2026-05-04 15:17 | 40.04882 | 24.63402 | 36067 ft | 439 kts | 312° |
| 2026-05-04 15:17 | 40.10843 | 24.54307 | 36059 ft | 440 kts | 312° |
| 2026-05-04 15:18 | 40.14822 | 24.48223 | 36061 ft | 440 kts | 312° |
| 2026-05-04 15:19 | 40.20789 | 24.39074 | 36055 ft | 440 kts | 312° |
| 2026-05-04 15:19 | 40.26721 | 24.29952 | 36054 ft | 440 kts | 312° |
| 2026-05-04 15:20 | 40.30687 | 24.23838 | 36060 ft | 440 kts | 312° |
| 2026-05-04 15:20 | 40.34653 | 24.17713 | 36051 ft | 441 kts | 312° |
| 2026-05-04 15:21 | 40.38619 | 24.11575 | 36053 ft | 441 kts | 312° |
| 2026-05-04 15:22 | 40.44559 | 24.02358 | 36045 ft | 440 kts | 311° |
| 2026-05-04 15:22 | 40.50469 | 23.93161 | 36052 ft | 439 kts | 311° |
| 2026-05-04 15:23 | 40.54409 | 23.87014 | 36057 ft | 439 kts | 311° |
| 2026-05-04 15:23 | 40.58341 | 23.80869 | 36047 ft | 439 kts | 311° |
| 2026-05-04 15:24 | 40.66184 | 23.68572 | 36065 ft | 439 kts | 312° |
| 2026-05-04 15:25 | 40.70115 | 23.62388 | 36054 ft | 440 kts | 311° |
| 2026-05-04 15:26 | 40.75992 | 23.53124 | 36053 ft | 440 kts | 311° |
| 2026-05-04 15:26 | 40.81881 | 23.43809 | 36056 ft | 440 kts | 312° |
| 2026-05-04 15:27 | 40.87753 | 23.34495 | 36058 ft | 439 kts | 311° |
| 2026-05-04 15:28 | 40.93604 | 23.25185 | 36056 ft | 438 kts | 312° |
| 2026-05-04 15:29 | 40.99409 | 23.15919 | 36053 ft | 437 kts | 311° |
| 2026-05-04 15:30 | 41.12963 | 22.94260 | 36067 ft | 436 kts | 312° |
| 2026-05-04 15:31 | 41.18836 | 22.85056 | 36064 ft | 435 kts | 311° |
| 2026-05-04 15:32 | 41.28713 | 22.69790 | 36061 ft | 433 kts | 314° |
| 2026-05-04 15:34 | 41.38817 | 22.55139 | 36067 ft | 428 kts | 314° |
| 2026-05-04 15:34 | 41.44811 | 22.46331 | 36073 ft | 427 kts | 314° |
| 2026-05-04 15:35 | 41.50097 | 22.38531 | 36073 ft | 426 kts | 315° |
| 2026-05-04 15:36 | 41.56049 | 22.29726 | 36078 ft | 425 kts | 314° |
| 2026-05-04 15:36 | 41.60005 | 22.23861 | 36079 ft | 425 kts | 314° |
| 2026-05-04 15:37 | 41.63959 | 22.17986 | 36080 ft | 425 kts | 314° |
| 2026-05-04 15:37 | 41.67907 | 22.12109 | 36060 ft | 425 kts | 315° |
| 2026-05-04 15:38 | 41.71827 | 22.06259 | 36071 ft | 424 kts | 315° |
| 2026-05-04 15:38 | 41.75769 | 22.00368 | 36081 ft | 424 kts | 315° |
| 2026-05-04 15:39 | 41.79705 | 21.94472 | 36076 ft | 424 kts | 315° |
| 2026-05-04 15:40 | 41.85590 | 21.85638 | 36079 ft | 422 kts | 314° |
| 2026-05-04 15:40 | 41.89499 | 21.79753 | 36082 ft | 422 kts | 314° |
| 2026-05-04 15:41 | 41.93397 | 21.73874 | 36069 ft | 421 kts | 314° |
| 2026-05-04 15:41 | 41.97286 | 21.67997 | 36074 ft | 421 kts | 314° |
| 2026-05-04 15:42 | 42.01153 | 21.62142 | 36076 ft | 420 kts | 314° |
| 2026-05-04 15:42 | 42.05036 | 21.56249 | 36102 ft | 420 kts | 314° |
| 2026-05-04 15:43 | 42.08916 | 21.50351 | 36096 ft | 420 kts | 314° |
| 2026-05-04 15:43 | 42.12789 | 21.44451 | 36113 ft | 420 kts | 314° |
| 2026-05-04 15:44 | 42.16654 | 21.38544 | 36110 ft | 420 kts | 314° |
| 2026-05-04 15:44 | 42.20434 | 21.32591 | 36117 ft | 421 kts | 313° |
| 2026-05-04 15:45 | 42.24220 | 21.26558 | 36129 ft | 421 kts | 313° |
| 2026-05-04 15:45 | 42.28018 | 21.20507 | 36123 ft | 422 kts | 313° |
| 2026-05-04 15:46 | 42.31824 | 21.14444 | 36125 ft | 423 kts | 313° |
| 2026-05-04 15:46 | 42.35638 | 21.08362 | 36122 ft | 423 kts | 313° |
| 2026-05-04 15:47 | 42.39422 | 21.02313 | 36130 ft | 423 kts | 313° |
| 2026-05-04 15:47 | 42.43227 | 20.96222 | 36127 ft | 423 kts | 313° |
| 2026-05-04 15:48 | 42.47029 | 20.90121 | 36126 ft | 423 kts | 313° |
| 2026-05-04 15:48 | 42.52704 | 20.80987 | 36126 ft | 421 kts | 313° |
| 2026-05-04 15:49 | 42.56469 | 20.74915 | 36118 ft | 420 kts | 313° |
| 2026-05-04 15:49 | 42.60198 | 20.68887 | 36120 ft | 419 kts | 313° |
| 2026-05-04 15:50 | 42.63948 | 20.62813 | 36118 ft | 419 kts | 313° |
| 2026-05-04 15:50 | 42.67698 | 20.56727 | 36112 ft | 419 kts | 313° |
| 2026-05-04 15:51 | 42.71419 | 20.50676 | 36111 ft | 419 kts | 313° |
| 2026-05-04 15:51 | 42.75156 | 20.44584 | 36097 ft | 419 kts | 312° |
| 2026-05-04 15:52 | 42.78897 | 20.38475 | 36102 ft | 420 kts | 312° |
| 2026-05-04 15:52 | 42.82645 | 20.32341 | 36107 ft | 421 kts | 312° |
| 2026-05-04 15:53 | 42.86546 | 20.26379 | 36106 ft | 421 kts | 316° |
| 2026-05-04 15:53 | 42.90563 | 20.20642 | 36112 ft | 422 kts | 316° |
| 2026-05-04 15:54 | 42.94631 | 20.14830 | 36101 ft | 424 kts | 316° |
| 2026-05-04 15:54 | 42.98690 | 20.08972 | 36100 ft | 424 kts | 315° |
| 2026-05-04 15:55 | 43.02742 | 20.03084 | 36090 ft | 425 kts | 315° |
| 2026-05-04 15:55 | 43.06762 | 19.97224 | 36092 ft | 425 kts | 315° |
| 2026-05-04 15:56 | 43.10798 | 19.91328 | 36081 ft | 424 kts | 315° |
| 2026-05-04 15:56 | 43.14826 | 19.85431 | 36081 ft | 423 kts | 315° |
| 2026-05-04 15:57 | 43.18846 | 19.79535 | 36060 ft | 422 kts | 315° |
| 2026-05-04 15:57 | 43.22858 | 19.73639 | 36078 ft | 421 kts | 315° |
| 2026-05-04 15:58 | 43.26854 | 19.67753 | 36072 ft | 421 kts | 315° |
| 2026-05-04 15:58 | 43.30812 | 19.61912 | 36072 ft | 420 kts | 315° |
| 2026-05-04 15:59 | 43.34794 | 19.56024 | 36070 ft | 420 kts | 315° |
| 2026-05-04 15:59 | 43.38768 | 19.50135 | 36053 ft | 419 kts | 314° |
| 2026-05-04 16:00 | 43.42700 | 19.44297 | 36063 ft | 419 kts | 314° |
| 2026-05-04 16:00 | 43.46666 | 19.38395 | 36073 ft | 420 kts | 314° |
| 2026-05-04 16:01 | 43.50633 | 19.32480 | 36067 ft | 421 kts | 314° |
| 2026-05-04 16:01 | 43.54605 | 19.26544 | 36070 ft | 421 kts | 314° |
| 2026-05-04 16:02 | 43.58582 | 19.20589 | 36055 ft | 423 kts | 314° |
| 2026-05-04 16:03 | 43.64547 | 19.11634 | 36051 ft | 425 kts | 314° |
| 2026-05-04 16:03 | 43.68548 | 19.05612 | 36052 ft | 426 kts | 314° |
| 2026-05-04 16:04 | 43.72548 | 18.99577 | 36069 ft | 426 kts | 314° |
| 2026-05-04 16:04 | 43.78547 | 18.90505 | 36058 ft | 425 kts | 313° |
| 2026-05-04 16:05 | 43.82538 | 18.84452 | 36049 ft | 424 kts | 313° |
| 2026-05-04 16:06 | 43.88473 | 18.75426 | 36049 ft | 423 kts | 313° |
| 2026-05-04 16:07 | 43.96388 | 18.63346 | 36052 ft | 422 kts | 313° |
| 2026-05-04 16:08 | 44.04264 | 18.51274 | 36053 ft | 421 kts | 313° |
| 2026-05-04 16:09 | 44.14067 | 18.36176 | 36051 ft | 422 kts | 313° |
| 2026-05-04 16:10 | 44.21933 | 18.24001 | 36057 ft | 423 kts | 313° |
| 2026-05-04 16:11 | 44.29773 | 18.11815 | 36047 ft | 424 kts | 313° |
| 2026-05-04 16:12 | 44.41585 | 17.93356 | 36051 ft | 425 kts | 313° |
| 2026-05-04 16:13 | 44.49449 | 17.80997 | 36048 ft | 425 kts | 312° |
| 2026-05-04 16:14 | 44.57264 | 17.68663 | 36048 ft | 423 kts | 312° |
| 2026-05-04 16:16 | 44.67008 | 17.53208 | 36038 ft | 422 kts | 312° |
| 2026-05-04 16:17 | 44.76708 | 17.37738 | 36027 ft | 422 kts | 312° |
| 2026-05-04 16:18 | 44.84434 | 17.25339 | 36022 ft | 422 kts | 311° |
| 2026-05-04 16:19 | 44.94105 | 17.09776 | 36027 ft | 423 kts | 311° |
| 2026-05-04 16:20 | 45.05054 | 16.95900 | 36030 ft | 424 kts | 321° |
| 2026-05-04 16:22 | 45.16541 | 16.82678 | 36027 ft | 426 kts | 320° |
| 2026-05-04 16:23 | 45.29531 | 16.67498 | 36025 ft | 427 kts | 320° |
| 2026-05-04 16:25 | 45.43245 | 16.51379 | 36015 ft | 426 kts | 320° |
| 2026-05-04 16:26 | 45.59197 | 16.32493 | 36017 ft | 426 kts | 319° |
| 2026-05-04 16:28 | 45.70531 | 16.18984 | 35994 ft | 425 kts | 319° |
| 2026-05-04 16:29 | 45.86403 | 15.99948 | 36000 ft | 425 kts | 319° |
| 2026-05-04 16:31 | 45.97736 | 15.86262 | 36004 ft | 426 kts | 318° |
| 2026-05-04 16:32 | 46.11305 | 15.69777 | 36007 ft | 427 kts | 318° |
| 2026-05-04 16:33 | 46.20393 | 15.58712 | 36008 ft | 427 kts | 319° |
| 2026-05-04 16:34 | 46.27247 | 15.50460 | 36009 ft | 428 kts | 319° |
| 2026-05-04 16:35 | 46.40925 | 15.33880 | 36010 ft | 427 kts | 318° |
| 2026-05-04 16:36 | 46.47723 | 15.25586 | 36003 ft | 426 kts | 317° |
| 2026-05-04 16:37 | 46.54516 | 15.17280 | 36006 ft | 424 kts | 317° |
| 2026-05-04 16:38 | 46.63539 | 15.06195 | 36008 ft | 424 kts | 318° |
| 2026-05-04 16:39 | 46.74803 | 14.92294 | 36015 ft | 427 kts | 318° |
| 2026-05-04 16:40 | 46.83886 | 14.81023 | 36003 ft | 429 kts | 317° |
| 2026-05-04 16:41 | 46.95266 | 14.66824 | 35997 ft | 431 kts | 317° |
| 2026-05-04 16:43 | 47.06668 | 14.52525 | 36000 ft | 432 kts | 317° |
| 2026-05-04 16:43 | 47.13487 | 14.43928 | 36004 ft | 433 kts | 317° |
| 2026-05-04 16:45 | 47.27152 | 14.26616 | 35986 ft | 432 kts | 317° |
| 2026-05-04 16:46 | 47.38503 | 14.12141 | 35987 ft | 431 kts | 317° |
| 2026-05-04 16:47 | 47.47571 | 14.00515 | 35963 ft | 432 kts | 317° |
| 2026-05-04 16:48 | 47.56634 | 13.88839 | 35942 ft | 434 kts | 316° |
| 2026-05-04 16:49 | 47.65748 | 13.77041 | 35932 ft | 436 kts | 316° |
| 2026-05-04 16:50 | 47.74887 | 13.65155 | 35929 ft | 436 kts | 316° |
| 2026-05-04 16:51 | 47.81705 | 13.56250 | 35916 ft | 436 kts | 316° |
| 2026-05-04 16:52 | 47.90807 | 13.44310 | 35904 ft | 435 kts | 316° |
| 2026-05-04 16:53 | 47.97617 | 13.35337 | 35896 ft | 435 kts | 316° |
| 2026-05-04 16:54 | 48.06670 | 13.23360 | 35895 ft | 434 kts | 315° |
| 2026-05-04 16:55 | 48.20201 | 13.05347 | 35899 ft | 435 kts | 315° |
| 2026-05-04 16:56 | 48.31570 | 12.90341 | 35903 ft | 436 kts | 316° |
| 2026-05-04 16:57 | 48.38432 | 12.81325 | 35907 ft | 437 kts | 315° |
| 2026-05-04 16:58 | 48.47551 | 12.69265 | 35905 ft | 437 kts | 315° |
| 2026-05-04 17:00 | 48.61241 | 12.51041 | 35911 ft | 437 kts | 315° |
| 2026-05-04 17:01 | 48.72564 | 12.35863 | 35914 ft | 436 kts | 315° |
| 2026-05-04 17:02 | 48.81628 | 12.23644 | 35922 ft | 435 kts | 315° |
| 2026-05-04 17:03 | 48.88378 | 12.14506 | 35930 ft | 435 kts | 315° |
| 2026-05-04 17:03 | 48.95153 | 12.05298 | 35929 ft | 435 kts | 315° |
| 2026-05-04 17:04 | 49.04174 | 11.92982 | 35944 ft | 436 kts | 314° |
| 2026-05-04 17:05 | 49.13213 | 11.80579 | 35945 ft | 437 kts | 314° |
| 2026-05-04 17:06 | 49.19974 | 11.71261 | 35944 ft | 438 kts | 314° |
| 2026-05-04 17:07 | 49.25266 | 11.63943 | 35943 ft | 438 kts | 314° |
| 2026-05-04 17:07 | 49.31288 | 11.55587 | 35943 ft | 439 kts | 314° |
| 2026-05-04 17:08 | 49.38035 | 11.46191 | 35951 ft | 439 kts | 314° |
| 2026-05-04 17:09 | 49.42557 | 11.39874 | 35958 ft | 438 kts | 314° |
| 2026-05-04 17:09 | 49.47067 | 11.33555 | 35954 ft | 438 kts | 314° |
| 2026-05-04 17:10 | 49.57649 | 11.18932 | 35933 ft | 439 kts | 317° |
| 2026-05-04 17:11 | 49.62418 | 11.13057 | 35955 ft | 439 kts | 317° |
| 2026-05-04 17:12 | 49.69580 | 11.04254 | 35953 ft | 438 kts | 317° |
| 2026-05-04 17:13 | 49.81387 | 10.89474 | 35968 ft | 437 kts | 317° |
| 2026-05-04 17:14 | 49.90784 | 10.77626 | 35954 ft | 436 kts | 316° |
| 2026-05-04 17:15 | 49.97838 | 10.68694 | 35952 ft | 436 kts | 316° |
| 2026-05-04 17:16 | 50.07237 | 10.56739 | 35947 ft | 436 kts | 316° |
| 2026-05-04 17:17 | 50.16588 | 10.44782 | 35952 ft | 436 kts | 316° |
| 2026-05-04 17:17 | 50.22930 | 10.34853 | 35964 ft | 427 kts | 301° |
| 2026-05-04 17:18 | 50.24623 | 10.31035 | 35950 ft | 427 kts | 300° |
| 2026-05-04 17:19 | 50.31315 | 10.15802 | 35968 ft | 427 kts | 300° |
| 2026-05-04 17:20 | 50.38103 | 10.00494 | 35952 ft | 427 kts | 300° |
| 2026-05-04 17:20 | 50.43175 | 9.89022 | 35969 ft | 426 kts | 300° |
| 2026-05-04 17:21 | 50.49928 | 9.73661 | 35968 ft | 428 kts | 300° |
| 2026-05-04 17:22 | 50.53307 | 9.65942 | 35952 ft | 429 kts | 300° |
| 2026-05-04 17:23 | 50.60048 | 9.50473 | 35780 ft | 430 kts | 300° |
| 2026-05-04 17:23 | 50.63349 | 9.42876 | 35319 ft | 414 kts | 300° |
| 2026-05-04 17:24 | 50.64961 | 9.39157 | 34977 ft | 409 kts | 300° |
| 2026-05-04 17:24 | 50.69704 | 9.28167 | 33784 ft | 398 kts | 299° |
| 2026-05-04 17:25 | 50.71253 | 9.24567 | 33363 ft | 397 kts | 299° |
| 2026-05-04 17:25 | 50.74359 | 9.17329 | 32555 ft | 396 kts | 299° |
| 2026-05-04 17:26 | 50.77423 | 9.10180 | 31793 ft | 389 kts | 298° |
| 2026-05-04 17:26 | 50.81888 | 8.99725 | 30679 ft | 379 kts | 298° |
| 2026-05-04 17:27 | 50.84944 | 8.92942 | 29947 ft | 377 kts | 302° |
| 2026-05-04 17:27 | 50.88218 | 8.86509 | 29166 ft | 371 kts | 303° |
| 2026-05-04 17:28 | 50.91435 | 8.80182 | 28398 ft | 369 kts | 303° |
| 2026-05-04 17:29 | 50.95771 | 8.70171 | 27038 ft | 366 kts | 297° |
| 2026-05-04 17:29 | 50.99817 | 8.59957 | 25706 ft | 362 kts | 298° |
| 2026-05-04 17:30 | 51.03857 | 8.49898 | 24545 ft | 358 kts | 298° |
| 2026-05-04 17:31 | 51.06532 | 8.43254 | 23771 ft | 355 kts | 298° |
| 2026-05-04 17:31 | 51.10501 | 8.33374 | 22534 ft | 350 kts | 298° |
| 2026-05-04 17:32 | 51.13092 | 8.26906 | 21755 ft | 347 kts | 298° |
| 2026-05-04 17:33 | 51.16959 | 8.17221 | 20641 ft | 343 kts | 298° |
| 2026-05-04 17:33 | 51.18235 | 8.14015 | 20278 ft | 341 kts | 298° |
| 2026-05-04 17:34 | 51.22024 | 8.04475 | 19135 ft | 342 kts | 298° |
| 2026-05-04 17:34 | 51.23292 | 8.01276 | 18789 ft | 341 kts | 298° |
| 2026-05-04 17:35 | 51.27063 | 7.91739 | 17722 ft | 336 kts | 298° |
| 2026-05-04 17:35 | 51.29547 | 7.85437 | 17000 ft | 333 kts | 298° |
| 2026-05-04 17:35 | 51.30779 | 7.82306 | 16645 ft | 332 kts | 298° |
| 2026-05-04 17:36 | 51.32006 | 7.79183 | 16297 ft | 331 kts | 299° |
| 2026-05-04 17:36 | 51.33228 | 7.76069 | 15984 ft | 328 kts | 299° |
| 2026-05-04 17:36 | 51.34437 | 7.72983 | 15647 ft | 327 kts | 299° |
| 2026-05-04 17:36 | 51.35644 | 7.69900 | 15317 ft | 326 kts | 299° |
| 2026-05-04 17:37 | 51.36763 | 7.66821 | 14985 ft | 323 kts | 289° |
| 2026-05-04 17:37 | 51.37248 | 7.63361 | 14681 ft | 315 kts | 272° |
| 2026-05-04 17:37 | 51.37356 | 7.59877 | 14397 ft | 312 kts | 269° |
| 2026-05-04 17:37 | 51.37407 | 7.56408 | 14066 ft | 312 kts | 269° |
| 2026-05-04 17:38 | 51.37447 | 7.52943 | 13736 ft | 311 kts | 268° |
| 2026-05-04 17:38 | 51.37480 | 7.49481 | 13395 ft | 310 kts | 268° |
| 2026-05-04 17:38 | 51.37508 | 7.46049 | 13074 ft | 308 kts | 268° |
| 2026-05-04 17:38 | 51.37533 | 7.42629 | 12758 ft | 306 kts | 268° |
| 2026-05-04 17:39 | 51.37270 | 7.35916 | 12071 ft | 300 kts | 248° |
| 2026-05-04 17:39 | 51.36374 | 7.32937 | 11779 ft | 294 kts | 239° |
| 2026-05-04 17:39 | 51.35373 | 7.30095 | 11349 ft | 293 kts | 238° |
| 2026-05-04 17:40 | 51.34365 | 7.27304 | 10904 ft | 293 kts | 238° |
| 2026-05-04 17:40 | 51.33367 | 7.24548 | 10568 ft | 288 kts | 238° |
| 2026-05-04 17:40 | 51.32353 | 7.21755 | 10166 ft | 286 kts | 238° |
| 2026-05-04 17:40 | 51.31502 | 7.18890 | 9732 ft | 286 kts | 255° |
| 2026-05-04 17:41 | 51.31465 | 7.15796 | 9456 ft | 285 kts | 281° |
| 2026-05-04 17:41 | 51.32322 | 7.12996 | 9327 ft | 278 kts | 309° |
| 2026-05-04 17:41 | 51.33844 | 7.11187 | 9215 ft | 269 kts | 337° |
| 2026-05-04 17:41 | 51.35655 | 7.10681 | 8974 ft | 263 kts | 359° |
| 2026-05-04 17:42 | 51.37475 | 7.10775 | 8792 ft | 259 kts | 2° |
| 2026-05-04 17:42 | 51.39263 | 7.10924 | 8603 ft | 256 kts | 3° |
| 2026-05-04 17:42 | 51.41018 | 7.11096 | 8316 ft | 257 kts | 7° |
| 2026-05-04 17:42 | 51.42682 | 7.12060 | 8017 ft | 256 kts | 37° |
| 2026-05-04 17:43 | 51.43813 | 7.14195 | 7766 ft | 251 kts | 68° |
| 2026-05-04 17:43 | 51.44119 | 7.16891 | 7503 ft | 246 kts | 99° |
| 2026-05-04 17:43 | 51.43539 | 7.19395 | 7235 ft | 240 kts | 130° |
| 2026-05-04 17:43 | 51.42252 | 7.21018 | 6977 ft | 235 kts | 162° |
| 2026-05-04 17:44 | 51.40676 | 7.21301 | 6635 ft | 228 kts | 192° |
| 2026-05-04 17:44 | 51.39274 | 7.20189 | 6239 ft | 227 kts | 224° |
| 2026-05-04 17:44 | 51.38481 | 7.18030 | 5818 ft | 231 kts | 255° |
| 2026-05-04 17:44 | 51.38534 | 7.15436 | 5336 ft | 239 kts | 287° |
| 2026-05-04 17:45 | 51.39321 | 7.13177 | 5176 ft | 230 kts | 302° |
| 2026-05-04 17:45 | 51.40214 | 7.11141 | 5011 ft | 217 kts | 300° |
| 2026-05-04 17:45 | 51.40694 | 7.08920 | 4551 ft | 211 kts | 269° |
| 2026-05-04 17:45 | 51.40657 | 7.06571 | 4191 ft | 210 kts | 264° |
| 2026-05-04 17:46 | 51.40561 | 7.04254 | 3896 ft | 207 kts | 263° |
| 2026-05-04 17:46 | 51.40410 | 7.01986 | 3674 ft | 199 kts | 252° |
| 2026-05-04 17:46 | 51.39738 | 7.00090 | 3524 ft | 199 kts | 230° |
| 2026-05-04 17:46 | 51.38896 | 6.98279 | 3262 ft | 206 kts | 233° |
| 2026-05-04 17:47 | 51.38074 | 6.96468 | 2976 ft | 199 kts | 232° |
| 2026-05-04 17:47 | 51.37256 | 6.94734 | 2712 ft | 191 kts | 231° |
| 2026-05-04 17:47 | 51.36466 | 6.93075 | 2466 ft | 183 kts | 231° |
| 2026-05-04 17:47 | 51.35703 | 6.91474 | 2226 ft | 178 kts | 230° |
| 2026-05-04 17:48 | 51.34960 | 6.89915 | 1991 ft | 175 kts | 231° |
| 2026-05-04 17:48 | 51.34222 | 6.88369 | 1772 ft | 175 kts | 230° |
| 2026-05-04 17:48 | 51.33501 | 6.86855 | 1524 ft | 165 kts | 230° |
| 2026-05-04 17:48 | 51.32839 | 6.85461 | 1315 ft | 152 kts | 230° |
| 2026-05-04 17:49 | 51.32210 | 6.84138 | 1081 ft | 148 kts | 229° |
| 2026-05-04 17:49 | 51.31587 | 6.82832 | 879 ft | 152 kts | 230° |
| 2026-05-04 17:49 | 51.30941 | 6.81473 | 664 ft | 153 kts | 230° |
| 2026-05-04 17:49 | 51.30298 | 6.80118 | 468 ft | 153 kts | 230° |
| 2026-05-04 17:50 | 51.29657 | 6.78763 | 262 ft | 153 kts | 230° |
| 2026-05-04 17:50 | 51.29068 | 6.77530 | 126 ft | 140 kts | 232° |
| 2026-05-04 17:50 | 51.28607 | 6.76555 | 129 ft | 80 kts | 232° |
| 2026-05-04 17:50 | 51.28406 | 6.76135 | 126 ft | 33 kts | 229° |
| 2026-05-04 17:51 | 51.28290 | 6.76039 | 127 ft | 13 kts | 182° |
| 2026-05-04 17:51 | 51.28233 | 6.76055 | 128 ft | 5 kts | 162° |
| 2026-05-04 17:51 | 51.28214 | 6.76067 | 124 ft | 0 kts | 153° |
| 2026-05-04 17:51 | 51.28213 | 6.76067 | 124 ft | 0 kts | 152° |
| 2026-05-04 17:52 | 51.28200 | 6.76084 | 128 ft | 4 kts | 134° |
| 2026-05-04 17:52 | 51.28195 | 6.76149 | 126 ft | 8 kts | 74° |
| 2026-05-04 17:52 | 51.28198 | 6.76228 | 125 ft | 8 kts | 129° |
| 2026-05-04 17:52 | 51.28152 | 6.76240 | 128 ft | 7 kts | 211° |
| 2026-05-04 17:53 | 51.28114 | 6.76191 | 128 ft | 7 kts | 195° |
| 2026-05-04 17:53 | 51.28067 | 6.76208 | 129 ft | 7 kts | 160° |
| 2026-05-04 17:53 | 51.28044 | 6.76219 | 125 ft | 0 kts | 162° |